Hawleyville, Connecticut
Current Conditions -  °F | °C
As of 8:53 PM on Friday 21 Nov 2014 (Local Time) from KDXR Reporting Station
Clear Clear  
Wind Chill: 19°   Ceiling: Unl
Heat Index: 26°   Visibility: 10mi
Dew Point:   Wind: 6mph
Humidity: 49%   Direction: NA
Pressure: 30.46"   Gusts: NA
Location:  41.43°N, 73.36°W
Report Text: KDXR 220153Z VRB05KT 10SM CLR M03/M13 A3046 RMK AO2 SLP319 T10331128
Loading
Personal Weather Stations






























Interactive Weather Map New forecast layout! Learn more

10-Day Weather Forecast

Advertisements
Track Severe Weather on mobile